Aviation Digital Data Service (ADDS)

Output produced by METARs form (0857 UTC 23 July 2019)
found at http://www.aviationweather.gov/metar/data/
 
Forecast for: ZGSZ (SHENZHEN , CN)
Text: TAF ZGSZ 230305Z 2306/2406 18004MPS 8000 FEW020 TX32/2405Z TN27/2322Z
Forecast period: 0600 UTC 23 July 2019 to 0600 UTC 24 July 2019
Forecast type: FROM: standard forecast or significant change
Winds: from the S (180 degrees) at 9 MPH (8 knots; 4.1 m/s)
Visibility: 5 miles (8 km)
Ceiling: at least 12,000 feet AGL
Clouds: few clouds at 2000 feet AGL
Weather: no significant weather forecast for this period
Text: TEMPO 2306/2310 -TSRA SCT011 FEW020CB BKN030
Forecast period: 0600 to 1000 UTC 23 July 2019
Forecast type: TEMPORARY: The following changes expected for less than half the time period
Visibility: missing
Ceiling: 3000 feet AGL
Clouds: scattered clouds at 1100 feet AGL
few clouds at 2000 feet AGL
broken clouds at 3000 feet AGL
Weather: -TSRA  (light rain associated with thunderstorm(s))